• Join FlightAware (Why Join?)
  • Login
  • US Flag 
10:15PM EDT


 

Airport Tracker/Info


-or-


 

Live Flight TrackerFlight Track Log ✈ N114SP ✈ 30-Aug-2013 ✈ KLXL - KSTP

Flight Track Log - Related Links

Times and Time Zones

All times are in EDT time to prevent confusion due to time zone crossing. See the N114SP flight status page for this flight to view local times or setup timezone preferences in your user account.

Time Position Orientation Groundspeed Altitude Reporting Facility
EDT Latitude Longitude Course Direction KTS MPH feet Rate Location/Type
09:46AM 45.8070 -94.1626 137° Southeast  Level Estimated
09:47AM 45.7832 -94.1319 138° Southeast  Level Estimated
09:47AM 45.8208 -94.1961 138° Southeast 112 129 3,800  Level Minneapolis Center
09:48AM 45.7595 -94.1012 138° Southeast  Level FlightAware Approximate
09:48AM 45.7992 -94.1708 141° Southeast 102 117 4,300  Level Minneapolis Center
09:49AM 45.7358 -94.0705 138° Southeast  Level FlightAware Approximate
09:49AM 45.7736 -94.1417 141° Southeast 99 114 4,900  Level Minneapolis Center
09:50AM 45.7120 -94.0399 138° Southeast  Level FlightAware Approximate
09:50AM 45.7519 -94.1100 134° Southeast 103 119 5,000  Level Minneapolis Center
09:51AM 45.6882 -94.0093 138° Southeast  Level FlightAware Approximate
09:51AM 45.7256 -94.0728 135° Southeast 116 133 5,100  Level Minneapolis Center
09:52AM 45.6645 -93.9787 138° Southeast  Level FlightAware Approximate
09:52AM 45.6950 -94.0381 142° Southeast 134 154 5,100  Level Minneapolis Center
09:53AM 45.6406 -93.9481 138° Southeast  Level FlightAware Approximate
09:53AM 45.6725 -94.0106 139° Southeast 134 154 5,000  Level Minneapolis Center
09:54AM 45.6336 -93.9617 139° Southeast 134 154 5,100  Climbing Minneapolis Center
09:56AM 45.6067 -93.9264 138° Southeast 133 153 5,000 -60 Descending Minneapolis Center
09:57AM 45.5808 -93.8894 135° Southeast 132 152 5,000  Level Minneapolis Center
09:58AM 45.5550 -93.8517 134° Southeast 132 152 5,000  Level Minneapolis Center
09:59AM 45.5264 -93.8167 139° Southeast 136 157 5,000  Level Minneapolis Center
10:00AM 45.4972 -93.7808 139° Southeast 138 159 5,000  Level Minneapolis Center
10:01AM 45.4706 -93.7431 135° Southeast 136 157 5,000  Level Minneapolis Center
10:02AM 45.4439 -93.6811 122° Southeast 131 151 5,000  Level Minneapolis Center
10:03AM 45.4233 -93.6369 124° Southeast 132 152 5,000  Level Minneapolis Center
10:04AM 45.4061 -93.6017 125° Southeast 135 155 5,000  Level Minneapolis Center
10:05AM 45.3842 -93.5458 119° Southeast 135 155 5,000  Level Minneapolis Center
10:06AM 45.3639 -93.5000 122° Southeast 137 158 5,000 -120 Level Minneapolis Center
10:07AM 45.3436 -93.4536 122° Southeast 138 159 4,800 -480 Descending Minneapolis Center
10:08AM 45.3175 -93.3931 122° Southeast 149 171 4,100 -420 Descending Minneapolis Center
10:09AM 45.2956 -93.3447 123° Southeast 145 167 4,000 -60 Descending Minneapolis Center
10:10AM 45.2781 -93.3006 119° Southeast 132 152 4,000  Level Minneapolis Center
10:11AM 45.2603 -93.2542 119° Southeast 133 153 4,000  Level Minneapolis Center
10:12AM 45.2433 -93.2075 117° Southeast 134 154 4,000  Level Minneapolis Center
10:13AM 45.2269 -93.1606 116° Southeast 133 153 4,000  Level Minneapolis Center
10:14AM 45.2083 -93.1150 120° Southeast 134 154 4,000  Level Minneapolis Center
10:15AM 45.1869 -93.0581 118° Southeast 136 157 4,000  Level Minneapolis Center
10:16AM 45.1525 -93.0336 153° Southeast 143 165 4,000  Level Minneapolis Center
10:17AM 45.1156 -93.0139 159° South 142 163 4,000 -180 Level Minneapolis Center
10:18AM 45.0797 -92.9928 157° South 140 161 3,700 -480 Descending Minneapolis Center
10:19AM 45.0386 -92.9794 167° South 149 171 3,100 -360 Descending Minneapolis Center
10:20AM 45.0039 -92.9628 161° South 134 154 3,000 -60 Descending Minneapolis Center
10:22AM 44.9742 -92.9511 164° South 137 158 3,000 -120 Level Minneapolis Center
10:23AM 44.9228 -92.9297 164° South 137 158 2,800 -240 Descending Minneapolis Center
10:24AM 44.8844 -92.9125 162° South 142 163 2,500 -180 Descending Minneapolis Center
10:25AM 44.8503 -92.8983 164° South 130 150 2,500  Level Minneapolis Center
10:26AM 44.8156 -92.8819 161° South 130 150 2,500  Level Minneapolis Center
10:27AM 44.8031 -92.9169 243° Southwest 123 142 2,500  Level Minneapolis Center
10:28AM 44.8294 -92.9508 318° Northwest 109 125 2,500  Level Minneapolis Center
10:29AM 44.8553 -92.9853 317° Northwest 109 125 2,500 -360 Level Minneapolis Center
10:30AM 44.8850 -93.0142 325° Northwest 106 122 1,800 -600 Descending Minneapolis Center
10:31AM 44.9050 -93.0328 327° Northwest 88 101 1,300 -420 Descending Minneapolis Center
10:32AM 44.9203 -93.0475 326° Northwest 69 79 1,000 -300 Descending Minneapolis Center